createdAt,value
2022-12-03T00:00:59.993Z,16.60
2022-12-03T00:03:50.295Z,18.10
2022-12-03T00:06:40.651Z,17.10
2022-12-03T00:09:30.409Z,16.83
2022-12-03T00:12:20.197Z,16.30
2022-12-03T00:15:10.589Z,15.88
2022-12-03T00:18:00.520Z,15.60
2022-12-03T00:20:50.346Z,16.35
2022-12-03T00:23:42.345Z,15.88
2022-12-03T00:26:32.708Z,16.88
2022-12-03T00:29:22.644Z,16.45
2022-12-03T00:32:13.954Z,16.13
2022-12-03T00:35:04.188Z,16.48
2022-12-03T00:37:55.086Z,15.95
2022-12-03T00:40:45.400Z,15.25
2022-12-03T00:43:35.346Z,14.93
2022-12-03T00:46:25.892Z,14.60
2022-12-03T00:49:15.836Z,13.98
2022-12-03T00:52:06.013Z,13.23
2022-12-03T00:54:56.606Z,14.68
2022-12-03T00:57:47.206Z,12.75
2022-12-03T01:00:37.778Z,13.43
2022-12-03T01:03:28.125Z,13.38
2022-12-03T01:06:18.433Z,13.43
2022-12-03T01:09:08.634Z,13.50
2022-12-03T01:11:58.800Z,13.73
2022-12-03T01:14:48.548Z,12.75
2022-12-03T01:17:38.434Z,14.45
2022-12-03T01:20:28.738Z,13.60
2022-12-03T01:23:18.996Z,13.32
2022-12-03T01:26:08.848Z,14.23
2022-12-03T01:28:58.936Z,14.80
2022-12-03T01:32:07.682Z,14.15
2022-12-03T01:34:58.306Z,14.38
2022-12-03T01:37:48.146Z,13.98
2022-12-03T01:40:38.262Z,14.52
2022-12-03T01:43:28.416Z,13.73
2022-12-03T01:46:22.253Z,14.45
2022-12-03T01:49:17.773Z,13.88
2022-12-03T01:52:15.035Z,12.95
2022-12-03T01:55:11.618Z,14.35
2022-12-03T01:58:02.243Z,14.15
2022-12-03T02:00:52.026Z,13.73
2022-12-03T02:03:44.041Z,14.70
2022-12-03T02:06:34.476Z,15.00
2022-12-03T02:09:24.578Z,14.60
2022-12-03T02:12:18.085Z,14.55
2022-12-03T02:15:10.048Z,14.60
2022-12-03T02:18:01.026Z,15.32
2022-12-03T02:21:30.154Z,15.05
2022-12-03T02:24:28.169Z,14.13
2022-12-03T02:27:18.442Z,13.57
2022-12-03T02:30:10.301Z,14.25
2022-12-03T02:33:01.310Z,14.25
2022-12-03T02:35:51.367Z,15.00
2022-12-03T02:38:44.062Z,14.23
2022-12-03T02:41:52.662Z,15.75
2022-12-03T02:44:42.953Z,15.07
2022-12-03T02:47:44.434Z,15.55
2022-12-03T02:50:42.444Z,16.13
2022-12-03T02:53:47.251Z,15.35
2022-12-03T02:56:37.537Z,14.40
2022-12-03T02:59:27.894Z,16.00
2022-12-03T03:02:18.660Z,14.73
2022-12-03T03:05:11.884Z,15.52
2022-12-03T03:08:02.669Z,14.50
2022-12-03T03:10:53.954Z,14.80
2022-12-03T03:13:44.337Z,15.35
2022-12-03T03:16:34.766Z,15.38
2022-12-03T03:19:26.495Z,16.08
2022-12-03T03:22:17.002Z,16.02
2022-12-03T03:25:13.137Z,17.17
2022-12-03T03:28:03.987Z,17.27
2022-12-03T03:30:54.106Z,16.25
2022-12-03T03:33:47.276Z,16.50
2022-12-03T03:36:38.686Z,16.08
2022-12-03T03:39:28.902Z,17.23
2022-12-03T03:42:19.162Z,17.02
2022-12-03T03:45:09.887Z,17.08
2022-12-03T03:48:03.231Z,17.20
2022-12-03T03:50:53.797Z,18.25
2022-12-03T03:53:47.895Z,17.92
2022-12-03T03:56:38.514Z,18.35
2022-12-03T03:59:29.243Z,17.65
2022-12-03T04:02:21.412Z,16.38
2022-12-03T04:05:18.260Z,17.08
2022-12-03T04:08:08.162Z,17.17
2022-12-03T04:11:17.240Z,17.73
2022-12-03T04:14:07.451Z,17.38
2022-12-03T04:16:57.418Z,17.23
2022-12-03T04:19:47.880Z,17.98
2022-12-03T04:22:40.689Z,18.02
2022-12-03T04:25:49.049Z,17.90
2022-12-03T04:28:51.419Z,16.88
2022-12-03T04:32:00.330Z,17.90
2022-12-03T04:35:09.286Z,17.67
2022-12-03T04:38:01.378Z,17.55
2022-12-03T04:41:00.664Z,17.75
2022-12-03T04:44:09.283Z,16.48
2022-12-03T04:47:00.219Z,18.38
2022-12-03T04:49:51.533Z,16.90
2022-12-03T04:52:41.609Z,18.25
2022-12-03T04:55:31.454Z,18.45
2022-12-03T04:58:21.299Z,18.00
2022-12-03T05:01:11.218Z,17.00
2022-12-03T05:04:01.803Z,18.80
2022-12-03T05:06:52.135Z,18.58
2022-12-03T05:09:42.296Z,18.98
2022-12-03T05:12:32.528Z,17.63
2022-12-03T05:15:22.628Z,18.08
2022-12-03T05:18:12.518Z,18.73
2022-12-03T05:21:02.668Z,19.23
2022-12-03T05:23:53.113Z,18.70
2022-12-03T05:26:43.232Z,18.63
2022-12-03T05:29:33.291Z,17.77
2022-12-03T05:32:23.363Z,19.05
2022-12-03T05:35:13.409Z,18.33
2022-12-03T05:38:03.385Z,19.70
2022-12-03T05:40:53.555Z,17.85
2022-12-03T05:43:43.417Z,19.08
2022-12-03T05:46:33.667Z,18.33
2022-12-03T05:49:23.823Z,16.90
2022-12-03T05:52:13.833Z,17.92
2022-12-03T05:55:03.969Z,19.15
2022-12-03T05:57:54.189Z,18.13
2022-12-03T06:00:44.143Z,18.35
2022-12-03T06:03:34.303Z,18.45
2022-12-03T06:06:24.445Z,19.48
2022-12-03T06:09:14.361Z,17.98
2022-12-03T06:12:06.405Z,17.73
2022-12-03T06:14:56.594Z,18.73
2022-12-03T06:17:47.353Z,19.27
2022-12-03T06:20:37.851Z,17.88
2022-12-03T06:23:27.995Z,19.48
2022-12-03T06:26:17.963Z,20.05
2022-12-03T06:29:07.826Z,19.95
2022-12-03T06:31:57.618Z,19.17
2022-12-03T06:34:47.478Z,19.10
2022-12-03T06:37:37.401Z,19.25
2022-12-03T06:40:27.397Z,20.63
2022-12-03T06:43:17.585Z,19.50
2022-12-03T06:46:07.608Z,20.95
2022-12-03T06:48:58.119Z,19.75
2022-12-03T06:51:48.328Z,21.65
2022-12-03T06:54:38.278Z,22.33
2022-12-03T06:57:28.276Z,21.38
2022-12-03T07:00:19.003Z,22.00
2022-12-03T07:03:09.010Z,22.25
2022-12-03T07:05:59.170Z,22.08
2022-12-03T07:08:49.011Z,20.05
2022-12-03T07:11:42.031Z,22.00
2022-12-03T07:14:31.925Z,20.88
2022-12-03T07:17:21.822Z,20.55
2022-12-03T07:20:12.150Z,21.42
2022-12-03T07:23:01.925Z,20.27
2022-12-03T07:25:51.661Z,21.10
2022-12-03T07:28:42.094Z,19.13
2022-12-03T07:31:32.457Z,21.20
2022-12-03T07:34:24.025Z,21.85
2022-12-03T07:37:15.779Z,23.45
2022-12-03T07:40:09.835Z,24.48
2022-12-03T07:42:59.841Z,24.10
2022-12-03T07:45:49.935Z,24.02
2022-12-03T07:48:40.112Z,22.67
2022-12-03T07:51:32.387Z,22.50
2022-12-03T07:54:23.862Z,21.13
2022-12-03T07:57:13.922Z,21.73
2022-12-03T08:00:05.610Z,21.48
2022-12-03T08:02:55.899Z,21.33
2022-12-03T08:05:45.874Z,21.77
2022-12-03T08:08:35.860Z,21.45
2022-12-03T08:11:28.902Z,23.25
2022-12-03T08:14:20.462Z,20.88
2022-12-03T08:17:14.616Z,21.92
2022-12-03T08:20:12.545Z,22.45
2022-12-03T08:23:11.303Z,22.85
2022-12-03T08:26:02.136Z,21.67
2022-12-03T08:28:53.128Z,22.88
2022-12-03T08:31:48.456Z,21.95
2022-12-03T08:34:41.495Z,21.52
2022-12-03T08:37:31.823Z,21.60
2022-12-03T08:40:31.529Z,21.65
2022-12-03T08:43:24.625Z,21.85
2022-12-03T08:46:19.056Z,21.90
2022-12-03T08:49:09.800Z,23.48
2022-12-03T08:52:01.520Z,24.55
2022-12-03T08:54:54.297Z,25.23
2022-12-03T08:57:44.858Z,26.95
2022-12-03T09:00:35.015Z,25.98
2022-12-03T09:03:31.029Z,25.80
2022-12-03T09:06:22.354Z,25.95
2022-12-03T09:09:12.129Z,24.38
2022-12-03T09:12:02.212Z,24.67
2022-12-03T09:14:52.616Z,24.90
2022-12-03T09:17:43.311Z,25.45
2022-12-03T09:20:33.621Z,26.88
2022-12-03T09:23:24.317Z,25.10
2022-12-03T09:26:14.774Z,22.95
2022-12-03T09:29:10.480Z,23.27
2022-12-03T09:32:02.723Z,21.90
2022-12-03T09:34:54.171Z,21.50
2022-12-03T09:37:44.355Z,20.90
2022-12-03T09:40:34.477Z,21.92
2022-12-03T09:43:37.898Z,20.50
2022-12-03T09:46:36.367Z,19.20
2022-12-03T09:49:28.450Z,20.33
2022-12-03T09:52:26.309Z,20.48
2022-12-03T09:55:23.202Z,19.83
2022-12-03T09:58:15.753Z,18.92
2022-12-03T10:01:13.712Z,17.98
2022-12-03T10:04:04.298Z,18.95
2022-12-03T10:06:58.325Z,18.33
2022-12-03T10:09:48.380Z,17.80
2022-12-03T10:12:38.568Z,17.13
2022-12-03T10:15:28.644Z,17.08
2022-12-03T10:18:22.461Z,19.05
2022-12-03T10:21:19.972Z,19.17
2022-12-03T10:24:26.779Z,21.90
2022-12-03T10:27:23.538Z,21.13
2022-12-03T10:30:20.279Z,21.33
2022-12-03T10:33:18.456Z,22.88
2022-12-03T10:36:24.331Z,22.70
2022-12-03T10:39:16.884Z,21.40
2022-12-03T10:42:16.029Z,21.63
2022-12-03T10:45:17.882Z,21.13
2022-12-03T10:48:19.722Z,21.48
2022-12-03T10:51:21.210Z,22.70
2022-12-03T10:54:17.660Z,22.15
2022-12-03T10:57:09.280Z,21.73
2022-12-03T10:59:59.844Z,21.48
2022-12-03T11:02:56.448Z,21.92
2022-12-03T11:05:47.956Z,20.13
2022-12-03T11:08:38.329Z,19.08
2022-12-03T11:11:30.659Z,19.48
2022-12-03T11:14:50.796Z,18.90
2022-12-03T11:17:50.069Z,16.55
2022-12-03T11:21:01.419Z,15.95
2022-12-03T11:23:51.628Z,16.45
2022-12-03T11:26:41.560Z,15.27
2022-12-03T11:30:00.553Z,18.00
2022-12-03T11:32:57.027Z,15.60
2022-12-03T11:36:05.565Z,15.60
2022-12-03T11:38:56.528Z,15.63
2022-12-03T11:42:27.760Z,17.58
2022-12-03T11:45:30.296Z,16.65
2022-12-03T11:48:20.512Z,17.42
2022-12-03T11:51:15.984Z,18.52
2022-12-03T11:54:06.167Z,17.48
2022-12-03T11:56:56.442Z,17.67
2022-12-03T12:00:01.192Z,17.45
2022-12-03T12:02:54.086Z,16.98
2022-12-03T12:05:44.104Z,18.00
2022-12-03T12:08:36.964Z,16.75
2022-12-03T12:11:33.353Z,17.90
2022-12-03T12:14:26.756Z,17.45
2022-12-03T12:17:49.282Z,16.15
2022-12-03T12:20:39.590Z,16.55
2022-12-03T12:23:29.859Z,16.88
2022-12-03T12:26:20.260Z,16.88
2022-12-03T12:29:10.611Z,16.83
2022-12-03T12:32:05.712Z,16.02
2022-12-03T12:35:17.360Z,15.95
2022-12-03T12:38:07.669Z,16.45
2022-12-03T12:40:57.940Z,17.05
2022-12-03T12:43:48.064Z,16.38
2022-12-03T12:46:47.618Z,16.65
2022-12-03T12:49:38.544Z,17.38
2022-12-03T12:52:28.917Z,16.30
2022-12-03T12:55:20.383Z,16.10
2022-12-03T12:58:19.180Z,16.65
2022-12-03T13:01:20.340Z,18.70
2022-12-03T13:04:22.618Z,18.58
2022-12-03T13:07:13.375Z,17.98
2022-12-03T13:10:36.718Z,18.25
2022-12-03T13:13:31.505Z,19.48
2022-12-03T13:16:32.596Z,19.35
2022-12-03T13:19:24.396Z,19.95
2022-12-03T13:22:18.417Z,19.63
2022-12-03T13:26:00.217Z,19.65
2022-12-03T13:28:46.703Z,18.20
2022-12-03T13:31:43.439Z,19.20
2022-12-03T13:34:34.845Z,18.77
2022-12-03T13:37:28.248Z,17.58
2022-12-03T13:40:26.681Z,19.30
2022-12-03T13:43:18.996Z,19.38
2022-12-03T13:46:10.012Z,17.70
2022-12-03T13:49:01.892Z,18.02
2022-12-03T13:51:52.533Z,18.98
2022-12-03T13:54:42.734Z,17.52
2022-12-03T13:57:33.467Z,18.88
2022-12-03T14:00:23.620Z,19.00
2022-12-03T14:03:13.688Z,18.50
2022-12-03T14:06:04.012Z,19.08
2022-12-03T14:08:54.567Z,18.25
2022-12-03T14:12:03.336Z,17.90
2022-12-03T14:14:53.977Z,17.80
2022-12-03T14:17:44.353Z,18.05
2022-12-03T14:20:35.011Z,19.05
2022-12-03T14:23:25.797Z,17.75
2022-12-03T14:26:16.392Z,18.10
2022-12-03T14:29:08.943Z,17.33
2022-12-03T14:31:59.709Z,16.20
2022-12-03T14:34:49.964Z,17.02
2022-12-03T14:37:40.442Z,18.38
2022-12-03T14:40:30.764Z,17.77
2022-12-03T14:43:20.707Z,17.38
2022-12-03T14:46:11.155Z,18.38
2022-12-03T14:49:01.136Z,21.58
2022-12-03T14:51:51.476Z,16.85
2022-12-03T14:54:42.881Z,15.52
2022-12-03T14:57:33.154Z,18.13
2022-12-03T15:00:23.186Z,19.02
2022-12-03T15:03:13.373Z,17.00
2022-12-03T15:06:03.265Z,16.90
2022-12-03T15:08:53.197Z,16.05
2022-12-03T15:11:50.436Z,16.33
2022-12-03T15:14:41.358Z,16.13
2022-12-03T15:18:29.823Z,16.48
2022-12-03T15:21:19.905Z,15.10
2022-12-03T15:24:10.605Z,15.70
2022-12-03T15:27:00.970Z,15.52
2022-12-03T15:29:51.217Z,14.85
2022-12-03T15:32:41.918Z,16.10
2022-12-03T15:35:32.664Z,14.57
2022-12-03T15:38:23.557Z,15.57
2022-12-03T15:41:29.578Z,15.40
2022-12-03T15:44:19.690Z,15.23
2022-12-03T15:47:09.582Z,17.60
2022-12-03T15:49:59.562Z,32.35
2022-12-03T15:52:49.796Z,16.92
2022-12-03T15:55:39.999Z,18.05
2022-12-03T15:58:29.994Z,15.82
2022-12-03T16:01:20.235Z,16.02
2022-12-03T16:04:10.718Z,14.98
2022-12-03T16:07:01.430Z,15.45
2022-12-03T16:09:52.547Z,16.38
2022-12-03T16:12:43.296Z,16.45
2022-12-03T16:15:35.103Z,15.48
2022-12-03T16:18:25.509Z,14.73
2022-12-03T16:21:15.409Z,17.60
2022-12-03T16:24:06.069Z,15.73
2022-12-03T16:26:56.158Z,15.10
2022-12-03T16:29:46.185Z,14.27
2022-12-03T16:32:36.874Z,18.42
2022-12-03T16:35:42.212Z,15.75
2022-12-03T16:38:34.019Z,14.88
2022-12-03T16:41:24.987Z,16.50
2022-12-03T16:44:32.459Z,15.57
2022-12-03T16:47:22.750Z,17.95
2022-12-03T16:50:18.715Z,15.35
2022-12-03T16:53:10.437Z,16.10
2022-12-03T16:56:01.617Z,15.73
2022-12-03T16:58:51.667Z,15.75
2022-12-03T17:01:42.387Z,15.45
2022-12-03T17:04:32.731Z,16.63
2022-12-03T17:07:22.881Z,19.60
2022-12-03T17:10:13.179Z,16.63
2022-12-03T17:13:11.035Z,17.73
2022-12-03T17:16:01.576Z,17.23
2022-12-03T17:18:51.746Z,17.35
2022-12-03T17:21:42.078Z,15.70
2022-12-03T17:24:32.305Z,15.77
2022-12-03T17:27:24.847Z,16.23
2022-12-03T17:30:15.657Z,15.55
2022-12-03T17:33:06.157Z,17.40
2022-12-03T17:35:56.527Z,15.52
2022-12-03T17:38:46.725Z,15.93
2022-12-03T17:41:41.433Z,16.40
2022-12-03T17:44:31.556Z,16.35
2022-12-03T17:47:21.746Z,16.63
2022-12-03T17:50:12.331Z,16.75
2022-12-03T17:53:05.358Z,16.60
2022-12-03T17:55:55.445Z,17.98
2022-12-03T17:58:45.531Z,16.67
2022-12-03T18:01:36.143Z,16.23
2022-12-03T18:04:26.843Z,18.73
2022-12-03T18:07:16.960Z,17.38
2022-12-03T18:10:07.529Z,24.17
2022-12-03T18:13:01.726Z,19.23
2022-12-03T18:15:52.644Z,17.73
2022-12-03T18:18:43.066Z,18.42
2022-12-03T18:21:33.425Z,18.40
2022-12-03T18:24:23.648Z,18.15
2022-12-03T18:27:13.857Z,18.80
2022-12-03T18:30:04.911Z,20.25
2022-12-03T18:32:55.183Z,20.17
2022-12-03T18:35:45.491Z,19.40
2022-12-03T18:38:35.791Z,19.60
2022-12-03T18:41:26.000Z,19.33
2022-12-03T18:44:16.469Z,19.65
2022-12-03T18:47:13.460Z,20.73
2022-12-03T18:50:04.176Z,21.23
2022-12-03T18:52:54.136Z,23.98
2022-12-03T18:55:46.335Z,22.67
2022-12-03T18:58:36.995Z,22.10
2022-12-03T19:01:27.392Z,23.73
2022-12-03T19:04:18.061Z,22.55
2022-12-03T19:07:09.389Z,23.98
2022-12-03T19:09:59.552Z,22.95
2022-12-03T19:12:49.931Z,23.15
2022-12-03T19:15:40.440Z,21.08
2022-12-03T19:18:31.860Z,22.40
2022-12-03T19:21:22.240Z,22.15
2022-12-03T19:24:28.791Z,22.98
2022-12-03T19:27:19.466Z,21.13
2022-12-03T19:30:10.893Z,22.75
2022-12-03T19:33:01.474Z,20.75
2022-12-03T19:35:51.913Z,22.10
2022-12-03T19:38:42.639Z,22.50
2022-12-03T19:41:33.002Z,23.40
2022-12-03T19:44:23.203Z,22.38
2022-12-03T19:47:13.830Z,22.88
2022-12-03T19:53:00.425Z,21.42
2022-12-03T19:55:50.883Z,20.08
2022-12-03T19:58:42.749Z,21.85
2022-12-03T20:01:35.159Z,21.60
2022-12-03T20:04:25.337Z,22.60
2022-12-03T20:07:15.897Z,22.48
2022-12-03T20:10:06.976Z,22.02
2022-12-03T20:12:57.224Z,22.88
2022-12-03T20:15:48.072Z,22.88
2022-12-03T20:18:43.932Z,20.17
2022-12-03T20:21:36.319Z,18.50
2022-12-03T20:24:26.817Z,17.77
2022-12-03T20:27:22.676Z,18.98
2022-12-03T20:30:13.567Z,18.95
2022-12-03T20:33:03.789Z,18.88
2022-12-03T20:35:56.103Z,18.42
2022-12-03T20:38:46.575Z,17.10
2022-12-03T20:41:37.836Z,18.05
2022-12-03T20:44:27.608Z,18.65
2022-12-03T20:47:17.649Z,16.77
2022-12-03T20:50:08.100Z,17.63
2022-12-03T20:53:23.146Z,16.60
2022-12-03T20:56:09.649Z,17.08
2022-12-03T20:59:02.242Z,16.55
2022-12-03T21:01:52.616Z,16.13
2022-12-03T21:04:42.976Z,17.38
2022-12-03T21:07:35.330Z,17.30
2022-12-03T21:10:44.981Z,16.42
2022-12-03T21:13:35.658Z,17.35
2022-12-03T21:17:06.473Z,19.67
2022-12-03T21:19:43.041Z,17.85
2022-12-03T21:22:33.038Z,17.40
2022-12-03T21:25:23.118Z,17.35
2022-12-03T21:28:13.516Z,19.17
2022-12-03T21:31:06.514Z,17.65
2022-12-03T21:33:57.068Z,19.13
2022-12-03T21:36:47.303Z,18.33
2022-12-03T21:39:37.748Z,18.65
2022-12-03T21:42:36.526Z,17.85
2022-12-03T21:45:29.861Z,19.13
2022-12-03T21:48:20.246Z,17.05
2022-12-03T21:51:12.492Z,17.27
2022-12-03T21:54:03.200Z,17.70
2022-12-03T21:56:53.190Z,18.13
2022-12-03T21:59:44.103Z,16.20
2022-12-03T22:02:34.873Z,16.55
2022-12-03T22:05:25.065Z,18.67
2022-12-03T22:08:15.263Z,18.65
2022-12-03T22:11:10.868Z,17.23
2022-12-03T22:14:04.672Z,17.42
2022-12-03T22:16:55.458Z,16.13
2022-12-03T22:19:45.444Z,17.08
2022-12-03T22:22:35.598Z,18.10
2022-12-03T22:25:25.546Z,17.50
2022-12-03T22:28:15.719Z,17.45
2022-12-03T22:31:08.152Z,17.58
2022-12-03T22:33:58.377Z,18.27
2022-12-03T22:36:48.601Z,17.92
2022-12-03T22:39:38.763Z,19.10
2022-12-03T22:42:28.820Z,18.63
2022-12-03T22:45:19.871Z,18.30
2022-12-03T22:48:09.946Z,19.08
2022-12-03T22:51:00.114Z,17.30
2022-12-03T22:53:58.518Z,18.15
2022-12-03T22:56:48.827Z,19.80
2022-12-03T22:59:38.738Z,18.35
2022-12-03T23:02:29.076Z,17.23
2022-12-03T23:05:18.959Z,19.02
2022-12-03T23:08:11.782Z,18.45
2022-12-03T23:11:02.148Z,18.83
2022-12-03T23:13:52.626Z,18.83
2022-12-03T23:16:42.774Z,17.00
2022-12-03T23:19:32.825Z,17.15
2022-12-03T23:22:22.757Z,16.83
2022-12-03T23:25:12.894Z,17.17
2022-12-03T23:28:03.716Z,17.65
2022-12-03T23:30:54.121Z,17.23
2022-12-03T23:33:45.173Z,18.42
2022-12-03T23:36:35.425Z,17.10
2022-12-03T23:39:25.707Z,18.20
2022-12-03T23:42:15.784Z,17.33
2022-12-03T23:45:06.658Z,17.25
2022-12-03T23:47:58.480Z,17.45
2022-12-03T23:50:48.671Z,18.92
2022-12-03T23:53:40.069Z,17.73
2022-12-03T23:56:30.987Z,18.15
2022-12-03T23:59:21.317Z,17.45
